Aérodrome :
LOGIN :

S'inscrire | Disclaimer

   EN    FR    IT 

 










Légende :    VFR   VFR Marginal   IFR   IFR Intensif   IFR Très Intensif
Visi : 
Plafond : 
>= 8 km
>= 3000ft
5 à 8 km
1000 à 3000 ft
1500m à 5 km
500 à 1000 ft
800 à 1500m
200 à 500 ft
< 800m
< 200 ft
Symboles :   Orages  Brouillard  Fortes neiges  Fortes précipitations  Vent > 20 kt
SIGMETs :   Divers  Orages  Givrage  Turbulence  Onde Orograph.  Cendres Volcan.






- Altitude de l'aérodrome : 135 ft
- Code IATA : EDI


EGPH - Edinburgh

DERNIER METAR :
  • 180650Z 24019KT 9999 BKN025 04/03 Q1003

METARs EXPIRÉS :
  • 180620Z 23018KT 9999 -RA BKN013 BKN026 04/03 Q1003
  • 180550Z 24016KT 7000 -RA SCT010 SCT023 04/03 Q1003
  • 180520Z 24013KT 9999 -RA BKN014 04/03 Q1003
  • 180450Z 24018KT 9999 -RA SCT014 BKN021 04/03 Q1004
  • 180420Z 25015KT 9000 -RA BKN014 BKN026 04/03 Q1003

TAF TAF EGPH
Valide du 18 à 06h jusqu'au 19 à 06h UTC


180457Z 1806/1906 24015KT 9999 SCT020
TEMPO 1806/1821 25018G30KT
PROB40
TEMPO 1806/1818 5000 SHRA BKN014
BECMG 1821/1824 25018G34KT
BECMG 1903/1906 24014KT
ATIS : +44 131 339 2823



MET'MAP, la Météo Aéronautique d'un coup d'oeil ! - Copyright ORBIFLY Décembre 2007 - Disclaimer

ORBIFLY MET'MAP TEAM :

Programmation & Développement : Alexandra Zaïnal
Sur une idée originale de : Baudouin d'Aumeries
Assistance à la programmation : Marc-Olivier Méhu
Soutien technique & logistique : Manuel Goepfert

Contact : metmap@orbifly.com




SOURCES & CREDITS :

   NOAA